Time;durP1;ratioP1;P1;durP2;ratioP2;P2;SDS_P1;SDS_P2;PMS_P1;PMS_P2;Temp;Humidity;BMP_temperature;BMP_pressure;BME280_temperature;BME280_humidity;BME280_pressure;Samples;Min_cycle;Max_cycle;Signal;HPM_P1;HPM_P2
2024/04/13 00:01:53;;;;;;;21.67;9.93;;;9.40;1.00;;;;;;5498934;26;20707;-74
2024/04/13 00:04:39;;;;;;;23.07;10.17;;;9.40;1.00;;;;;;5490131;26;20261;-76
2024/04/13 00:07:29;;;;;;;22.97;9.90;;;9.40;1.00;;;;;;5489099;26;20848;-76
2024/04/13 00:10:15;;;;;;;24.20;9.63;;;9.30;1.00;;;;;;5474183;26;20231;-76
2024/04/13 00:13:05;;;;;;;18.50;9.73;;;9.20;1.00;;;;;;5473142;26;20684;-75
2024/04/13 00:15:55;;;;;;;21.57;9.50;;;9.20;1.00;;;;;;5501148;26;20786;-75
2024/04/13 00:18:48;;;;;;;23.90;9.40;;;9.20;1.00;;;;;;5490219;26;20234;-75
2024/04/13 00:21:34;;;;;;;21.73;9.67;;;9.10;1.00;;;;;;5483925;26;20327;-75
2024/04/13 00:24:23;;;;;;;25.00;9.50;;;9.10;1.00;;;;;;5509575;26;20232;-76
2024/04/13 00:27:10;;;;;;;19.80;9.87;;;9.10;1.00;;;;;;5515904;26;20235;-75
2024/04/13 00:29:59;;;;;;;18.30;9.43;;;9.10;1.00;;;;;;5498253;26;20691;-75
2024/04/13 00:32:46;;;;;;;21.23;10.20;;;9.00;95.40;;;;;;5510096;26;20283;-74
2024/04/13 00:35:38;;;;;;;18.03;9.40;;;8.90;91.20;;;;;;5506702;26;20287;-76
2024/04/13 00:38:26;;;;;;;24.00;10.00;;;8.80;99.90;;;;;;5490662;25;20290;-76
2024/04/13 00:41:15;;;;;;;26.67;9.83;;;8.80;99.90;;;;;;5501644;26;20232;-76
2024/04/13 00:44:03;;;;;;;21.67;9.60;;;8.80;99.90;;;;;;5507203;26;20240;-74
2024/04/13 00:47:04;;;;;;;21.97;9.13;;;8.80;99.90;;;;;;5505931;26;20649;-76
2024/04/13 00:49:51;;;;;;;16.87;9.20;;;8.80;99.90;;;;;;5515272;26;20302;-75
2024/04/13 00:52:44;;;;;;;19.40;9.70;;;8.70;99.90;;;;;;5500431;26;20322;-75
2024/04/13 00:55:31;;;;;;;20.93;9.63;;;8.60;99.90;;;;;;5482740;26;20373;-75
2024/04/13 00:58:26;;;;;;;16.73;8.97;;;8.60;99.90;;;;;;5495904;26;20782;-75
2024/04/13 01:01:15;;;;;;;17.67;9.60;;;8.50;1.00;;;;;;5491938;26;20238;-75
2024/04/13 01:04:02;;;;;;;17.43;9.23;;;8.60;1.00;;;;;;5519184;26;20300;-75
2024/04/13 01:06:51;;;;;;;20.47;9.20;;;8.60;1.00;;;;;;5508250;25;20235;-74
2024/04/13 01:09:41;;;;;;;19.90;9.47;;;8.60;1.00;;;;;;5517925;25;20230;-76
2024/04/13 01:12:31;;;;;;;19.73;9.40;;;8.50;1.00;;;;;;5497969;26;20284;-76
2024/04/13 01:15:17;;;;;;;22.17;9.63;;;8.60;1.00;;;;;;5512294;26;20227;-75
2024/04/13 01:18:10;;;;;;;20.07;9.50;;;8.60;1.00;;;;;;5495431;26;20331;-75
2024/04/13 01:20:57;;;;;;;22.10;10.20;;;8.50;1.00;;;;;;5498209;26;20560;-75
2024/04/13 01:23:47;;;;;;;24.90;10.10;;;8.40;1.00;;;;;;5513413;25;20228;-76
2024/04/13 01:26:38;;;;;;;23.93;10.90;;;8.40;14.00;;;;;;5513821;25;20296;-75
2024/04/13 01:29:27;;;;;;;26.30;9.87;;;8.30;98.80;;;;;;5504484;26;20622;-76
2024/04/13 01:32:14;;;;;;;23.07;11.10;;;8.30;99.90;;;;;;5508127;26;20273;-75
2024/04/13 01:35:10;;;;;;;24.80;10.77;;;8.20;99.90;;;;;;5513206;26;20316;-76
2024/04/13 01:37:57;;;;;;;25.07;11.13;;;8.20;99.90;;;;;;5469421;26;20937;-74
2024/04/13 01:40:46;;;;;;;23.93;10.40;;;8.20;99.90;;;;;;5509220;26;20285;-76
2024/04/13 01:43:38;;;;;;;24.27;11.47;;;8.10;99.90;;;;;;5497570;25;20323;-75
2024/04/13 01:46:25;;;;;;;24.07;12.50;;;8.00;99.90;;;;;;5514325;26;20287;-75
2024/04/13 01:49:14;;;;;;;30.00;12.83;;;8.10;1.00;;;;;;5506980;26;20304;-76
2024/04/13 01:52:01;;;;;;;25.13;11.73;;;8.10;1.00;;;;;;5503432;26;20273;-75
2024/04/13 01:54:50;;;;;;;22.27;12.07;;;8.20;1.00;;;;;;5508445;26;20229;-76
2024/04/13 01:57:38;;;;;;;32.73;13.97;;;8.10;1.00;;;;;;5501016;26;20283;-75
2024/04/13 02:00:30;;;;;;;34.17;16.43;;;8.10;1.00;;;;;;5495501;26;20223;-74
2024/04/13 02:03:16;;;;;;;33.77;17.37;;;8.00;1.00;;;;;;5493791;26;20236;-76
2024/04/13 02:06:06;;;;;;;46.43;19.50;;;8.10;1.00;;;;;;5516500;26;20221;-75
2024/04/13 02:08:53;;;;;;;43.33;21.13;;;8.20;99.90;;;;;;5510822;26;20240;-76
2024/04/13 02:11:42;;;;;;;39.87;22.23;;;8.50;1.00;;;;;;5497710;26;20223;-76
2024/04/13 02:14:29;;;;;;;57.97;25.93;;;8.70;99.90;;;;;;5494549;26;20314;-75
2024/04/13 02:17:21;;;;;;;40.80;21.93;;;8.80;99.90;;;;;;5505305;25;20233;-76
2024/04/13 02:20:14;;;;;;;45.07;19.17;;;8.80;99.90;;;;;;5507143;26;20482;-76
2024/04/13 02:23:04;;;;;;;46.20;25.77;;;8.70;99.90;;;;;;5512890;26;20284;-75
2024/04/13 02:25:51;;;;;;;39.17;22.90;;;9.00;99.90;;;;;;5508916;26;20334;-76
2024/04/13 02:28:40;;;;;;;49.70;22.17;;;9.20;99.90;;;;;;5517273;26;20270;-74
2024/04/13 02:31:27;;;;;;;47.43;27.10;;;9.20;1.00;;;;;;5514151;26;20239;-76
2024/04/13 02:34:19;;;;;;;54.67;27.97;;;9.40;12.90;;;;;;5504337;26;20271;-76
2024/04/13 02:37:06;;;;;;;47.90;26.73;;;9.50;1.00;;;;;;5509363;25;20338;-75
2024/04/13 02:39:55;;;;;;;57.60;33.00;;;9.70;99.90;;;;;;5508014;26;20223;-76
2024/04/13 02:42:44;;;;;;;52.60;30.13;;;9.90;99.90;;;;;;5469668;26;20288;-76
2024/04/13 02:45:31;;;;;;;73.47;43.83;;;9.80;99.90;;;;;;5507602;26;20707;-75
2024/04/13 02:48:22;;;;;;;59.47;38.03;;;9.90;48.90;;;;;;5505000;26;20845;-75
2024/04/13 02:51:13;;;;;;;59.97;35.07;;;9.90;1.00;;;;;;5497815;26;20278;-75
2024/04/13 02:54:03;;;;;;;57.43;31.03;;;9.90;1.00;;;;;;5503093;25;20339;-75
2024/04/13 02:56:49;;;;;;;41.63;20.33;;;10.00;1.00;;;;;;5532072;25;20243;-75
2024/04/13 02:59:39;;;;;;;36.60;21.07;;;10.10;1.00;;;;;;5533417;25;20243;-76
2024/04/13 03:02:26;;;;;;;35.00;20.33;;;10.10;99.90;;;;;;5532492;25;20226;-76
2024/04/13 03:05:15;;;;;;;37.93;18.60;;;10.10;99.90;;;;;;5533929;25;20690;-76
2024/04/13 03:08:05;;;;;;;35.17;17.73;;;10.10;99.90;;;;;;5525358;25;20295;-76
2024/04/13 03:10:57;;;;;;;34.63;18.70;;;10.00;99.90;;;;;;5547118;25;20221;-75
2024/04/13 03:13:45;;;;;;;38.70;18.43;;;10.00;99.90;;;;;;5538069;25;20235;-75
2024/04/13 03:16:35;;;;;;;32.97;17.77;;;9.90;99.90;;;;;;5527024;25;20789;-76
2024/04/13 03:19:22;;;;;;;37.00;16.93;;;9.80;99.90;;;;;;5526397;25;20285;-75
2024/04/13 03:22:11;;;;;;;34.20;16.83;;;9.70;99.90;;;;;;5534946;25;20273;-75
2024/04/13 03:25:01;;;;;;;28.40;15.53;;;9.70;99.90;;;;;;5528820;25;20235;-76
2024/04/13 03:27:50;;;;;;;32.83;15.37;;;9.50;1.00;;;;;;5543730;25;20735;-76
2024/04/13 03:30:38;;;;;;;33.67;16.23;;;9.40;1.00;;;;;;5539153;25;20333;-76
2024/04/13 03:33:27;;;;;;;32.47;16.20;;;9.30;1.00;;;;;;5540888;25;20219;-75
2024/04/13 03:36:17;;;;;;;26.23;14.63;;;9.20;1.00;;;;;;5538015;25;20235;-75
2024/04/13 03:39:06;;;;;;;31.30;16.27;;;9.20;2.10;;;;;;5555982;25;20301;-75
2024/04/13 03:41:58;;;;;;;29.30;15.77;;;9.10;1.00;;;;;;5540168;25;20240;-76
2024/04/13 03:44:48;;;;;;;28.47;15.87;;;9.00;24.20;;;;;;5546921;25;20239;-76
2024/04/13 03:47:34;;;;;;;29.17;15.57;;;9.00;25.40;;;;;;5543614;25;20235;-76
2024/04/13 03:50:24;;;;;;;32.73;15.10;;;8.90;99.90;;;;;;5530362;25;20746;-75
2024/04/13 03:53:10;;;;;;;27.33;15.50;;;8.80;99.90;;;;;;5540610;25;20302;-74
2024/04/13 03:56:00;;;;;;;30.53;14.90;;;8.80;99.90;;;;;;5553885;25;20269;-74
2024/04/13 03:58:50;;;;;;;31.30;16.50;;;8.70;99.90;;;;;;5539604;25;20416;-75
2024/04/13 04:01:39;;;;;;;30.60;15.83;;;8.70;99.90;;;;;;5544153;25;20354;-75
2024/04/13 04:04:26;;;;;;;32.20;16.23;;;8.60;99.90;;;;;;5546100;25;20238;-75
2024/04/13 04:07:16;;;;;;;32.10;17.03;;;8.50;1.00;;;;;;5531344;25;20226;-75
2024/04/13 04:10:05;;;;;;;27.47;16.67;;;8.40;1.00;;;;;;5537219;25;21052;-75
2024/04/13 04:12:52;;;;;;;32.07;16.87;;;8.40;1.00;;;;;;5548485;25;20617;-75
2024/04/13 04:15:44;;;;;;;26.73;15.73;;;8.50;1.00;;;;;;5556083;25;20325;-74
2024/04/13 04:18:30;;;;;;;31.83;17.17;;;8.50;1.00;;;;;;5530155;25;20389;-75
2024/04/13 04:21:22;;;;;;;29.20;16.50;;;8.60;1.00;;;;;;5524274;25;20223;-74
2024/04/13 04:24:11;;;;;;;36.47;16.93;;;8.60;1.00;;;;;;5548701;25;20231;-75
2024/04/13 04:26:59;;;;;;;31.77;16.57;;;8.60;1.00;;;;;;5515152;25;20285;-75
2024/04/13 04:29:48;;;;;;;29.63;16.67;;;8.60;99.90;;;;;;5521561;25;20227;-76
2024/04/13 04:32:37;;;;;;;30.83;17.63;;;8.60;1.00;;;;;;5521918;25;20279;-75
2024/04/13 04:35:27;;;;;;;29.17;17.83;;;8.60;1.00;;;;;;5540167;25;20221;-75
2024/04/13 04:38:14;;;;;;;34.20;18.13;;;8.70;1.00;;;;;;5534512;25;20299;-75
2024/04/13 04:41:04;;;;;;;38.43;18.63;;;8.70;1.00;;;;;;5556796;25;20226;-76
2024/04/13 04:43:53;;;;;;;33.70;18.17;;;8.80;1.00;;;;;;5530800;25;20727;-75
2024/04/13 04:46:40;;;;;;;35.03;17.30;;;9.10;99.90;;;;;;5533451;25;20292;-75
2024/04/13 04:49:32;;;;;;;26.17;14.60;;;9.30;10.10;;;;;;5518969;25;20273;-76
2024/04/13 04:52:18;;;;;;;30.47;15.03;;;9.30;99.90;;;;;;5521753;25;20240;-75
2024/04/13 04:55:09;;;;;;;31.73;15.53;;;9.60;1.00;;;;;;5534184;25;20237;-76
2024/04/13 04:57:56;;;;;;;31.20;14.67;;;9.80;1.00;;;;;;5523728;25;20228;-76
2024/04/13 05:00:45;;;;;;;27.47;15.80;;;9.90;99.90;;;;;;5537104;25;20230;-75
2024/04/13 05:03:32;;;;;;;34.33;16.00;;;10.00;24.60;;;;;;5542832;25;20682;-75
2024/04/13 05:06:24;;;;;;;32.37;15.27;;;10.10;11.20;;;;;;5543598;25;20273;-76
2024/04/13 05:09:11;;;;;;;31.37;14.93;;;10.40;1.00;;;;;;5521770;25;20270;-76
2024/04/13 05:12:00;;;;;;;27.77;14.57;;;10.60;99.90;;;;;;5500890;25;20274;-74
2024/04/13 05:14:47;;;;;;;30.73;14.90;;;10.80;1.00;;;;;;5525192;25;20236;-75
2024/04/13 05:17:36;;;;;;;27.50;15.10;;;11.00;1.00;;;;;;5532129;25;20222;-75
2024/04/13 05:20:23;;;;;;;26.87;15.87;;;11.10;1.00;;;;;;5524962;25;20925;-76
2024/04/13 05:23:16;;;;;;;28.53;15.50;;;11.40;99.90;;;;;;5537785;25;20331;-76
2024/04/13 05:26:03;;;;;;;32.53;16.30;;;11.60;99.90;;;;;;5531198;25;20317;-76
2024/04/13 05:28:52;;;;;;;38.77;18.90;;;11.70;94.10;;;;;;5548019;25;20298;-75
2024/04/13 05:31:39;;;;;;;33.60;17.57;;;11.90;99.40;;;;;;5525084;25;20714;-76
2024/04/13 05:34:28;;;;;;;29.00;16.57;;;11.90;99.90;;;;;;5547088;25;20274;-75
2024/04/13 05:37:15;;;;;;;36.60;15.40;;;11.90;94.50;;;;;;5542281;25;20235;-75
2024/04/13 05:40:08;;;;;;;25.93;14.37;;;12.00;1.00;;;;;;5528325;25;20241;-75
2024/04/13 05:42:55;;;;;;;25.87;12.83;;;12.00;1.00;;;;;;5526172;25;20289;-75
2024/04/13 05:45:44;;;;;;;28.67;13.20;;;12.10;99.90;;;;;;5524276;25;20823;-75
2024/04/13 05:48:31;;;;;;;26.73;13.40;;;12.30;1.00;;;;;;5522821;25;20821;-75
2024/04/13 05:51:21;;;;;;;26.50;13.83;;;12.30;99.90;;;;;;5524213;25;20223;-75
2024/04/13 05:54:07;;;;;;;25.27;13.43;;;12.30;1.00;;;;;;5531023;25;20234;-74
2024/04/13 05:56:59;;;;;;;30.33;13.10;;;12.20;99.90;;;;;;5476993;26;20224;-75
2024/04/13 05:59:46;;;;;;;25.63;11.80;;;12.10;1.00;;;;;;5515864;25;20272;-74
2024/04/13 06:02:35;;;;;;;23.60;11.37;;;12.20;1.00;;;;;;5491363;26;20304;-75
2024/04/13 06:05:22;;;;;;;24.20;14.03;;;12.20;1.00;;;;;;5513116;26;20279;-75
2024/04/13 06:08:11;;;;;;;28.80;13.63;;;12.20;1.00;;;;;;5502622;26;20232;-75
2024/04/13 06:11:02;;;;;;;26.10;14.90;;;12.20;1.00;;;;;;5511046;26;20779;-74
2024/04/13 06:13:51;;;;;;;25.17;13.60;;;12.30;89.50;;;;;;5501674;26;20231;-75
2024/04/13 06:16:40;;;;;;;22.00;9.83;;;12.40;1.00;;;;;;5515783;25;20269;-75
2024/04/13 06:19:27;;;;;;;26.43;14.33;;;12.50;1.00;;;;;;5504400;26;22007;-66
2024/04/13 06:22:20;;;;;;;26.07;14.20;;;12.50;1.00;;;;;;5499387;26;20326;-64
2024/04/13 06:25:10;;;;;;;25.07;12.97;;;12.50;62.10;;;;;;5492429;26;20238;-64
2024/04/13 06:28:00;;;;;;;16.40;7.20;;;12.50;1.00;;;;;;5505063;25;20239;-64
2024/04/13 06:30:52;;;;;;;32.27;13.27;;;12.60;1.00;;;;;;5496218;26;20237;-64
2024/04/13 06:33:38;;;;;;;21.20;11.73;;;12.60;99.90;;;;;;5488354;25;20380;-64
2024/04/13 06:36:28;;;;;;;25.63;13.63;;;12.60;1.00;;;;;;5489699;26;20290;-64
2024/04/13 06:39:14;;;;;;;27.70;13.87;;;12.60;1.00;;;;;;5514767;25;20330;-64
2024/04/13 06:42:05;;;;;;;24.87;13.60;;;12.70;95.80;;;;;;5498336;26;20226;-65
2024/04/13 06:44:51;;;;;;;26.00;14.23;;;12.80;99.90;;;;;;5503058;26;20230;-64
2024/04/13 06:47:43;;;;;;;23.60;13.43;;;12.90;99.90;;;;;;5502396;26;20703;-64
2024/04/13 06:50:30;;;;;;;25.80;12.83;;;13.00;99.90;;;;;;5495440;25;20240;-64
2024/04/13 06:53:19;;;;;;;23.33;11.10;;;13.10;1.00;;;;;;5501669;25;20619;-64
2024/04/13 06:56:06;;;;;;;25.93;12.97;;;13.40;99.90;;;;;;5550808;25;20299;-65
2024/04/13 06:58:56;;;;;;;20.07;11.97;;;13.40;1.00;;;;;;5545607;25;20235;-64
2024/04/13 07:01:42;;;;;;;24.00;12.20;;;13.50;99.90;;;;;;5538683;25;20333;-65
2024/04/13 07:04:34;;;;;;;23.90;12.43;;;13.50;1.00;;;;;;5528782;25;20656;-64
2024/04/13 07:07:21;;;;;;;25.97;12.57;;;13.50;99.90;;;;;;5521328;25;20238;-65
2024/04/13 07:10:11;;;;;;;19.13;11.17;;;13.50;99.90;;;;;;5525483;25;20237;-65
2024/04/13 07:13:01;;;;;;;16.47;8.90;;;13.60;99.90;;;;;;5522227;25;20344;-65
2024/04/13 07:15:48;;;;;;;19.13;12.10;;;13.70;99.90;;;;;;5546709;25;20224;-65
2024/04/13 07:18:37;;;;;;;21.13;9.43;;;13.90;1.00;;;;;;5540310;25;20714;-64
2024/04/13 07:21:26;;;;;;;23.57;9.70;;;14.00;99.90;;;;;;5532495;25;20231;-65
2024/04/13 07:24:15;;;;;;;29.00;12.57;;;14.00;1.00;;;;;;5532191;25;20225;-65
2024/04/13 07:27:02;;;;;;;24.77;11.70;;;14.30;99.90;;;;;;5526840;25;20228;-65
2024/04/13 07:29:52;;;;;;;9.17;4.97;;;14.70;55.50;;;;;;5531066;25;20336;-64
2024/04/13 07:32:38;;;;;;;21.27;11.13;;;15.10;99.90;;;;;;5528139;25;20705;-64
2024/04/13 07:35:28;;;;;;;23.53;12.23;;;15.40;1.00;;;;;;5531288;25;20287;-64
2024/04/13 07:38:17;;;;;;;19.50;11.83;;;15.60;99.90;;;;;;5531347;25;20231;-65
2024/04/13 07:41:07;;;;;;;17.50;8.53;;;15.60;99.90;;;;;;5523293;25;20224;-64
2024/04/13 07:43:53;;;;;;;22.53;12.37;;;15.90;99.90;;;;;;5531902;25;20239;-64
2024/04/13 07:46:43;;;;;;;25.20;12.60;;;16.10;1.00;;;;;;5538840;25;20347;-65
2024/04/13 07:49:29;;;;;;;22.03;11.47;;;16.30;99.90;;;;;;5540564;25;20618;-64
2024/04/13 07:52:19;;;;;;;22.27;11.47;;;16.60;1.00;;;;;;5543458;25;20218;-64
2024/04/13 07:55:08;;;;;;;21.43;12.43;;;16.70;1.00;;;;;;5519677;25;20339;-66
2024/04/13 07:57:58;;;;;;;22.47;12.33;;;16.80;99.90;;;;;;5501597;25;20338;-64
2024/04/13 08:00:44;;;;;;;19.07;11.33;;;17.10;99.90;;;;;;5502294;26;20240;-64
2024/04/13 08:03:34;;;;;;;30.10;12.63;;;17.10;99.90;;;;;;5487080;26;20340;-64
2024/04/13 08:06:20;;;;;;;22.87;12.27;;;16.80;99.90;;;;;;5505537;25;20272;-64
2024/04/13 08:09:10;;;;;;;15.87;9.57;;;17.00;66.70;;;;;;5498385;26;20235;-64
2024/04/13 08:12:02;;;;;;;25.23;11.33;;;17.00;99.90;;;;;;5500161;26;20288;-64
2024/04/13 08:14:50;;;;;;;19.63;11.60;;;17.20;1.00;;;;;;5505996;26;20238;-64
2024/04/13 08:17:40;;;;;;;16.97;10.63;;;17.40;1.00;;;;;;5490678;25;20239;-64
2024/04/13 08:20:27;;;;;;;26.30;7.57;;;17.60;1.00;;;;;;5512703;26;20232;-64
2024/04/13 08:23:16;;;;;;;19.17;9.13;;;17.30;99.90;;;;;;5501209;26;20577;-64
2024/04/13 08:26:04;;;;;;;18.67;6.80;;;17.20;99.90;;;;;;5490011;26;20228;-64
2024/04/13 08:28:56;;;;;;;16.97;9.87;;;17.20;1.00;;;;;;5494073;26;20297;-64
2024/04/13 08:31:42;;;;;;;15.50;10.33;;;17.20;99.90;;;;;;5492991;26;20279;-64
2024/04/13 08:34:32;;;;;;;15.63;9.70;;;17.40;99.90;;;;;;5506833;26;20232;-65
2024/04/13 08:37:18;;;;;;;18.83;10.13;;;17.60;1.00;;;;;;5481625;25;20237;-65
2024/04/13 08:40:09;;;;;;;17.97;9.57;;;17.90;99.90;;;;;;5473547;26;20241;-65
2024/04/13 08:42:56;;;;;;;17.00;7.70;;;17.90;99.90;;;;;;5487608;26;20230;-66
2024/04/13 08:45:48;;;;;;;18.93;6.13;;;17.40;99.90;;;;;;5498854;26;20219;-64
2024/04/13 08:48:36;;;;;;;16.77;8.87;;;17.50;99.90;;;;;;5486930;26;20278;-65
2024/04/13 08:51:25;;;;;;;10.63;7.27;;;18.10;1.00;;;;;;5478342;26;20225;-64
2024/04/13 08:54:12;;;;;;;12.50;8.53;;;18.50;99.90;;;;;;5510181;25;20836;-64
2024/04/13 08:57:02;;;;;;;12.43;8.10;;;18.20;1.00;;;;;;5548444;25;20219;-64
2024/04/13 08:59:49;;;;;;;18.60;8.87;;;18.20;30.30;;;;;;5541498;25;20655;-65
2024/04/13 09:02:41;;;;;;;16.53;9.73;;;17.80;99.90;;;;;;5518497;25;20243;-64
2024/04/13 09:05:27;;;;;;;16.17;10.53;;;17.70;99.90;;;;;;5549431;25;20238;-65
2024/04/13 09:08:17;;;;;;;11.07;5.97;;;17.70;99.90;;;;;;5535872;25;20336;-65
2024/04/13 09:11:08;;;;;;;17.00;10.23;;;17.70;19.50;;;;;;5556432;25;20322;-64
2024/04/13 09:13:57;;;;;;;18.00;9.67;;;17.50;99.90;;;;;;5554469;25;20234;-65
2024/04/13 09:16:45;;;;;;;15.93;10.00;;;17.50;99.90;;;;;;5532787;25;20224;-64
2024/04/13 09:19:37;;;;;;;19.37;8.27;;;17.60;99.90;;;;;;5523673;25;20222;-64
2024/04/13 09:22:24;;;;;;;18.30;9.93;;;17.80;99.90;;;;;;5528359;25;20230;-66
2024/04/13 09:25:23;;;;;;;13.43;7.43;;;18.00;99.90;;;;;;5528305;25;20227;-65
2024/04/13 09:28:10;;;;;;;16.93;9.30;;;18.10;71.30;;;;;;5558262;25;20796;-64
2024/04/13 09:30:59;;;;;;;12.43;7.53;;;18.00;99.90;;;;;;5551505;25;20226;-64
2024/04/13 09:33:47;;;;;;;16.33;9.30;;;18.10;30.60;;;;;;5549578;25;20335;-66
2024/04/13 09:36:39;;;;;;;14.27;7.67;;;17.80;99.90;;;;;;5549024;25;20224;-64
2024/04/13 09:39:26;;;;;;;18.97;8.87;;;17.60;98.20;;;;;;5536055;25;20330;-64
2024/04/13 09:42:17;;;;;;;14.10;8.77;;;17.50;99.90;;;;;;5527807;25;20243;-64
2024/04/13 09:45:04;;;;;;;14.30;9.63;;;17.40;99.90;;;;;;5553658;25;20247;-64
2024/04/13 09:47:55;;;;;;;20.10;8.50;;;17.40;99.90;;;;;;5543778;25;20332;-64
2024/04/13 09:50:42;;;;;;;14.63;8.17;;;17.40;1.00;;;;;;5554588;25;20278;-65
2024/04/13 09:53:34;;;;;;;11.60;7.27;;;18.10;99.90;;;;;;5538946;25;20716;-63
2024/04/13 09:56:21;;;;;;;12.90;7.17;;;18.50;1.00;;;;;;5549758;25;20820;-63
2024/04/13 09:59:10;;;;;;;14.07;7.60;;;18.80;1.00;;;;;;5539334;25;20231;-64
2024/04/13 10:01:57;;;;;;;9.53;6.40;;;19.30;99.90;;;;;;5533109;25;20306;-64
2024/04/13 10:04:46;;;;;;;7.50;5.30;;;20.30;1.00;;;;;;5524340;25;20240;-65
2024/04/13 10:07:33;;;;;;;10.17;4.90;;;20.30;17.70;;;;;;5533218;25;20262;-64
2024/04/13 10:10:25;;;;;;;8.93;4.30;;;19.20;99.90;;;;;;5531483;25;20298;-63
2024/04/13 10:13:15;;;;;;;8.53;3.97;;;18.80;1.00;;;;;;5543133;25;20238;-65
2024/04/13 10:16:04;;;;;;;10.30;4.10;;;18.40;1.00;;;;;;5521758;25;20222;-65
2024/04/13 10:18:51;;;;;;;8.60;3.43;;;18.40;1.00;;;;;;5547943;25;20235;-65
2024/04/13 10:21:40;;;;;;;9.20;3.60;;;18.70;1.00;;;;;;5532471;25;20273;-64
2024/04/13 10:24:27;;;;;;;6.97;3.33;;;18.60;1.00;;;;;;5540798;25;20229;-64
2024/04/13 10:27:24;;;;;;;9.00;3.60;;;18.40;1.00;;;;;;5528695;25;20277;-65
2024/04/13 10:30:11;;;;;;;10.07;3.80;;;18.60;99.90;;;;;;5516394;25;20331;-65
2024/04/13 10:33:00;;;;;;;9.33;3.60;;;18.30;99.90;;;;;;5522887;25;20227;-65
2024/04/13 10:35:57;;;;;;;17.33;4.30;;;18.20;99.90;;;;;;5542035;25;20344;-64
2024/04/13 10:38:46;;;;;;;10.77;2.97;;;18.50;99.90;;;;;;5536095;25;20727;-64
2024/04/13 10:41:34;;;;;;;5.47;2.50;;;19.30;1.00;;;;;;5521176;25;20350;-64
2024/04/13 10:44:29;;;;;;;9.90;4.13;;;18.90;99.90;;;;;;5521185;25;20327;-64
2024/04/13 10:47:16;;;;;;;4.97;3.20;;;19.10;99.90;;;;;;5535353;25;20252;-65
2024/04/13 10:50:06;;;;;;;20.33;2.83;;;19.60;99.90;;;;;;5541787;25;20860;-64
2024/04/13 10:52:54;;;;;;;4.53;2.40;;;20.20;1.00;;;;;;5538825;25;20359;-64
2024/04/13 10:55:44;;;;;;;12.90;3.37;;;20.20;99.90;;;;;;5504915;26;20227;-65
2024/04/13 10:58:31;;;;;;;7.47;3.10;;;20.60;29.60;;;;;;5487222;26;20634;-64
2024/04/13 11:01:23;;;;;;;4.30;2.70;;;20.70;1.00;;;;;;5496742;26;20229;-64
2024/04/13 11:04:13;;;;;;;5.03;2.77;;;20.70;1.00;;;;;;5485527;26;20727;-63
2024/04/13 11:06:59;;;;;;;8.87;2.80;;;20.40;1.00;;;;;;5501736;26;20817;-64
2024/04/13 11:09:49;;;;;;;2.33;1.60;;;20.60;1.00;;;;;;5481524;26;20236;-63
2024/04/13 11:12:35;;;;;;;4.63;2.37;;;20.70;1.00;;;;;;5493665;26;20228;-63
2024/04/13 11:15:25;;;;;;;7.73;2.83;;;19.90;1.00;;;;;;5501226;26;20231;-64
2024/04/13 11:18:14;;;;;;;6.20;2.70;;;19.80;1.00;;;;;;5493095;26;20235;-63
2024/04/13 11:21:04;;;;;;;11.63;2.87;;;20.40;1.00;;;;;;5490742;26;20235;-64
2024/04/13 11:23:51;;;;;;;13.87;4.43;;;20.60;1.00;;;;;;5486342;26;20236;-64
2024/04/13 11:26:41;;;;;;;5.53;2.90;;;20.70;1.00;;;;;;5482562;26;20304;-63
2024/04/13 11:29:30;;;;;;;9.73;2.97;;;21.00;1.00;;;;;;5510775;26;20239;-63
2024/04/13 11:32:17;;;;;;;4.07;2.23;;;21.10;1.00;;;;;;5504869;26;20277;-63
2024/04/13 11:35:14;;;;;;;13.30;3.37;;;21.10;1.00;;;;;;5512294;26;20223;-63
2024/04/13 11:38:01;;;;;;;9.70;1.97;;;20.30;1.00;;;;;;5484870;26;20303;-64
2024/04/13 11:40:52;;;;;;;5.60;2.40;;;20.50;1.00;;;;;;5500220;25;20224;-64
2024/04/13 11:43:39;;;;;;;4.97;2.70;;;21.20;1.00;;;;;;5508274;26;20614;-64
2024/04/13 11:46:28;;;;;;;8.00;3.27;;;21.40;1.00;;;;;;5504624;26;20723;-64
2024/04/13 11:49:15;;;;;;;6.47;2.90;;;21.20;1.00;;;;;;5498222;26;20311;-64
2024/04/13 11:52:08;;;;;;;11.47;3.30;;;21.70;1.00;;;;;;5507877;26;20228;-64
2024/04/13 11:54:56;;;;;;;6.33;3.33;;;22.10;1.00;;;;;;5487551;25;20282;-64
2024/04/13 11:57:49;;;;;;;6.13;2.90;;;21.50;1.00;;;;;;5500455;26;20223;-64
2024/04/13 12:00:36;;;;;;;10.03;2.80;;;21.70;1.00;;;;;;5526941;25;20247;-66
2024/04/13 12:03:25;;;;;;;7.10;3.20;;;21.50;1.00;;;;;;5490301;26;20969;-64
2024/04/13 12:06:12;;;;;;;9.27;3.50;;;21.60;1.00;;;;;;5482353;26;20303;-65
2024/04/13 12:09:04;;;;;;;4.73;2.80;;;20.70;1.00;;;;;;5490407;26;20257;-65
2024/04/13 12:11:51;;;;;;;8.33;2.90;;;21.30;1.00;;;;;;5506432;26;20232;-65
2024/04/13 12:14:40;;;;;;;6.63;2.73;;;21.30;1.00;;;;;;5493992;26;20335;-65
2024/04/13 12:17:27;;;;;;;4.20;2.80;;;21.40;1.00;;;;;;5509912;26;20231;-65
2024/04/13 12:20:17;;;;;;;7.97;3.20;;;21.50;1.00;;;;;;5489899;26;22433;-65
2024/04/13 12:23:03;;;;;;;6.80;3.20;;;21.50;1.00;;;;;;5504781;26;20228;-65
2024/04/13 12:25:56;;;;;;;8.17;3.90;;;21.80;1.00;;;;;;5491407;25;20236;-64
2024/04/13 12:28:42;;;;;;;8.00;3.37;;;21.50;1.00;;;;;;5503740;26;20278;-64
2024/04/13 12:31:32;;;;;;;5.70;2.70;;;21.90;1.00;;;;;;5509889;25;20351;-64
2024/04/13 12:34:18;;;;;;;5.10;3.03;;;22.00;1.00;;;;;;5513596;26;20714;-64
2024/04/13 12:37:08;;;;;;;8.90;3.40;;;22.80;1.00;;;;;;5511305;26;20801;-64
2024/04/13 12:39:54;;;;;;;11.67;2.33;;;22.50;1.00;;;;;;5506415;26;20236;-64
2024/04/13 12:42:46;;;;;;;5.03;2.60;;;21.90;1.00;;;;;;5516326;26;20219;-64
2024/04/13 12:45:36;;;;;;;9.43;3.57;;;21.90;1.00;;;;;;5494428;26;20239;-64
2024/04/13 12:48:22;;;;;;;5.20;3.17;;;21.50;1.00;;;;;;5521257;26;20266;-64
2024/04/13 12:51:13;;;;;;;7.50;3.43;;;22.20;1.00;;;;;;5485394;26;20759;-64
2024/04/13 12:54:00;;;;;;;6.80;2.73;;;22.10;1.00;;;;;;5494510;26;20275;-64
2024/04/13 12:56:49;;;;;;;5.63;2.53;;;21.70;1.00;;;;;;5498455;26;20312;-64
2024/04/13 12:59:39;;;;;;;7.90;3.10;;;21.00;1.00;;;;;;5485242;26;20300;-64
2024/04/13 13:02:28;;;;;;;6.73;3.33;;;20.90;1.00;;;;;;5491036;26;21830;-65
2024/04/13 13:05:15;;;;;;;7.50;3.30;;;21.50;1.00;;;;;;5493877;26;20810;-64
2024/04/13 13:08:04;;;;;;;5.83;3.47;;;21.60;1.00;;;;;;5488152;26;20266;-64
2024/04/13 13:10:50;;;;;;;9.10;3.10;;;21.80;1.00;;;;;;5506682;26;20916;-64
2024/04/13 13:13:40;;;;;;;9.97;3.27;;;21.90;1.00;;;;;;5497830;26;20344;-65
2024/04/13 13:16:30;;;;;;;10.57;3.77;;;23.00;1.00;;;;;;5498505;26;20333;-64
2024/04/13 13:19:19;;;;;;;7.17;3.50;;;23.30;1.00;;;;;;5475400;26;20232;-64
2024/04/13 13:22:06;;;;;;;6.80;3.17;;;22.50;1.00;;;;;;5502915;26;20235;-65
2024/04/13 13:24:55;;;;;;;8.03;2.67;;;22.30;1.00;;;;;;5493149;26;20220;-64
2024/04/13 13:27:42;;;;;;;6.50;2.70;;;22.60;1.00;;;;;;5492720;26;20611;-64
2024/04/13 13:30:34;;;;;;;12.60;3.40;;;22.40;1.00;;;;;;5485355;26;20291;-64
2024/04/13 13:33:26;;;;;;;7.63;3.20;;;21.50;1.00;;;;;;5493022;26;20236;-64
2024/04/13 13:36:12;;;;;;;6.03;3.17;;;21.80;1.00;;;;;;5486120;26;20295;-64
2024/04/13 13:39:02;;;;;;;10.37;3.00;;;22.00;1.00;;;;;;5498252;26;20292;-64
2024/04/13 13:41:51;;;;;;;5.73;2.90;;;21.90;1.00;;;;;;5505522;26;20236;-64
2024/04/13 13:44:38;;;;;;;8.27;2.67;;;21.60;1.00;;;;;;5500908;26;20343;-64
2024/04/13 13:47:27;;;;;;;4.13;2.50;;;21.40;1.00;;;;;;5487518;26;20271;-64
2024/04/13 13:50:16;;;;;;;5.93;2.60;;;21.40;1.00;;;;;;5486779;26;20248;-64
2024/04/13 13:53:06;;;;;;;8.40;2.63;;;21.10;1.00;;;;;;5500689;26;20220;-64
2024/04/13 13:55:52;;;;;;;6.07;2.70;;;21.10;1.00;;;;;;5499375;26;20347;-64
2024/04/13 13:58:42;;;;;;;4.90;2.70;;;21.60;1.00;;;;;;5484400;26;20757;-64
2024/04/13 14:01:29;;;;;;;4.27;1.77;;;22.20;1.00;;;;;;5504675;26;20326;-64
2024/04/13 14:04:18;;;;;;;7.43;2.20;;;22.30;1.00;;;;;;5485043;26;20225;-63
2024/04/13 14:07:08;;;;;;;10.27;2.67;;;22.00;1.00;;;;;;5502333;26;20239;-64
2024/04/13 14:09:57;;;;;;;7.63;2.50;;;21.70;1.00;;;;;;5493224;26;20223;-64
2024/04/13 14:12:46;;;;;;;8.47;2.50;;;21.50;1.00;;;;;;5508625;25;20241;-63
2024/04/13 14:15:35;;;;;;;6.10;2.57;;;21.00;1.00;;;;;;5492964;26;20231;-64
2024/04/13 14:18:22;;;;;;;9.87;2.17;;;21.10;1.00;;;;;;5503762;25;20717;-63
2024/04/13 14:21:11;;;;;;;7.67;2.77;;;20.90;1.00;;;;;;5512179;26;20223;-64
2024/04/13 14:24:01;;;;;;;16.40;2.10;;;21.30;1.00;;;;;;5513506;26;20629;-64
2024/04/13 14:26:51;;;;;;;2.17;1.57;;;20.80;1.00;;;;;;5496438;26;20267;-63
2024/04/13 14:29:37;;;;;;;30.73;11.23;;;20.70;1.00;;;;;;5495595;26;20719;-63
2024/04/13 14:32:27;;;;;;;4.23;2.40;;;20.60;1.00;;;;;;5489019;26;20294;-63
2024/04/13 14:35:14;;;;;;;12.10;7.73;;;21.00;1.00;;;;;;5519559;26;20630;-63